Главная страница
METAR-TAF:

METAR-TAF

Аэропорты :

Brookhaven Airport

Шерли, Нью-Йорк, США

широта: 40-49-18N, долгота: 072-52-08W, высота над уровнем моря: 25 м

Текущие метеонаблюдения

Эта сводка был подготовлена 5 минут назад, в 20:56 UTC
Ветер 4 Узел от юго-юго-восточный
Температура 23°C
Влажность 89%
Давление 1020 hPa
Видимость: 16.1 км
Рассеянная облачность на высоте 3700 фута
Рассеянная облачность на высоте 6000 фута

METAR: KHWV 202056Z AUTO 16004KT 10SM BKN037 BKN060 23/21 A3012 RMK AO2 RAE34 SLP200 P0000 60000 T02330206 58007 $

Время: 17:01 (21:01 UTC)


TAF: отсутствует

Метеонаблюдения и прогнозы для более 4000 аэропортов (сводки METAR и TAF).

Имеющиеся станции представлены на карте желтыми и красными точками.

Чтобы увидеть название станции, наведите на нее мышь.

Затем щелкните, чтобы увидеть метеонаблюдения и метеопрогнозы.

Управление картой: чтобы увеличить масштаб, щелкните зеленые кнопки с черным крестиком; чтобы уменьшить масштаб, щелкните зеленую кнопку с тире; для просмотра соседних карт щелкайте зеленые стрелки.


METAR-TAF: